Rossmoyne, Ohio
Current Conditions -  °F | °C
As of 10:53 AM on Saturday 22 Nov 2014 (Local Time) from KLUK Reporting Station
Overcast Overcast  
Wind Chill: 44°   Ceiling: 6500
Heat Index: 44°   Visibility: 10mi
Dew Point: 36°   Wind: 3mph
Humidity: 73%   Direction: NA
Pressure: 30.27"   Gusts: NA
Location:  39.2094°N, 84.3952°W
Report Text: KLUK 221553Z VRB03KT 10SM BKN065 BKN090 OVC110 07/02 A3027 RMK AO2 RAB00E10 SLP256 P0001 T00670022
Loading
Personal Weather Stations






























Interactive Weather Map New forecast layout! Learn more

10-Day Weather Forecast

Advertisements
Track Severe Weather on mobile